Alfordsville, Indiana
Current Conditions -  °F | °C
As of 3:15 PM on Monday 24 Nov 2014 (Local Time) from KDCY Reporting Station
Broken Clouds Broken Clouds  
Wind Chill: 35°   Ceiling: 4900
Heat Index: 42°   Visibility: 10mi
Dew Point: 33°   Wind: 13mph
Humidity: 69%   Direction: 250°WSW
Pressure: 29.77"   Gusts: NA
Location:  38.6074°N, 86.9234°W
Report Text: KDCY 242115Z AUTO 25011KT 10SM BKN049 06/00 A2977 RMK AO2 T00570004
Loading
Personal Weather Stations






























Interactive Weather Map New forecast layout! Learn more

10-Day Weather Forecast

Advertisements
Track Severe Weather on mobile